Terminal Aerodrome Forecast
Issued by NWS Portland, OR

Home | Current Version | Previous Version | Text Only | Print | Product List | Glossary On
Versions: 1 2 3 4 5 6 7 8 9 10 11 12 13 14 15 16 17 18 19 20 21 22 23 24 25 26 27 28 29 30 31 32 33 34 35 36 37 38 39 40 41 42 43 44 45 46 47 48 49 50
000
FTUS46 KPQR 221000 AAB
TAFPDX
TAF AMD
KPDX 221000Z 2210/2306 VRB03KT P6SM FEW008 BKN080
     FM221045 VRB03KT 6SM BR BKN008 OVC050
     FM221800 31004KT P6SM SCT020 BKN045
     FM222100 34005KT P6SM SCT040=

USA.gov is the U.S. government's official web portal to all federal, state and local government web resources and services.